createdAt,value
2018-04-29T00:01:43.424Z,13.90
2018-04-29T00:04:09.709Z,13.90
2018-04-29T00:06:36.019Z,13.90
2018-04-29T00:09:02.330Z,13.90
2018-04-29T00:11:28.622Z,13.80
2018-04-29T00:13:55.647Z,13.80
2018-04-29T00:16:21.939Z,13.80
2018-04-29T00:18:48.212Z,13.70
2018-04-29T00:21:14.515Z,13.70
2018-04-29T00:23:40.804Z,13.70
2018-04-29T00:26:08.002Z,13.60
2018-04-29T00:28:34.322Z,13.60
2018-04-29T00:31:00.613Z,13.60
2018-04-29T00:33:27.648Z,13.50
2018-04-29T00:35:53.937Z,13.50
2018-04-29T00:38:20.259Z,13.50
2018-04-29T00:40:46.611Z,13.50
2018-04-29T00:43:13.637Z,13.50
2018-04-29T00:45:39.922Z,13.50
2018-04-29T00:48:06.224Z,13.40
2018-04-29T00:50:32.513Z,13.30
2018-04-29T00:52:58.872Z,13.30
2018-04-29T00:55:25.147Z,13.20
2018-04-29T00:57:51.452Z,13.20
2018-04-29T01:00:17.736Z,13.20
2018-04-29T01:02:44.002Z,13.20
2018-04-29T01:05:10.307Z,13.10
2018-04-29T01:07:36.571Z,13.10
2018-04-29T01:10:02.867Z,13.10
2018-04-29T01:12:29.181Z,13.00
2018-04-29T01:14:56.195Z,13.10
2018-04-29T01:17:22.498Z,13.10
2018-04-29T01:19:48.831Z,13.10
2018-04-29T01:22:15.150Z,13.00
2018-04-29T01:24:41.449Z,13.00
2018-04-29T01:27:07.757Z,13.00
2018-04-29T01:29:34.853Z,13.00
2018-04-29T01:32:01.173Z,13.00
2018-04-29T01:34:27.514Z,13.00
2018-04-29T01:36:53.824Z,13.00
2018-04-29T01:39:20.160Z,12.90
2018-04-29T01:41:46.443Z,12.90
2018-04-29T01:44:12.773Z,12.90
2018-04-29T01:46:39.091Z,12.80
2018-04-29T01:49:05.396Z,12.80
2018-04-29T01:51:31.687Z,12.70
2018-04-29T01:53:57.964Z,12.80
2018-04-29T01:56:24.286Z,12.70
2018-04-29T01:58:50.574Z,12.70
2018-04-29T02:01:16.871Z,12.80
2018-04-29T02:03:43.919Z,12.70
2018-04-29T02:06:10.219Z,12.60
2018-04-29T02:08:36.515Z,12.60
2018-04-29T02:11:02.823Z,12.60
2018-04-29T02:13:29.145Z,12.50
2018-04-29T02:15:55.386Z,12.60
2018-04-29T02:18:21.719Z,12.60
2018-04-29T02:20:48.020Z,12.60
2018-04-29T02:23:14.281Z,12.60
2018-04-29T02:25:40.541Z,12.50
2018-04-29T02:28:07.562Z,12.50
2018-04-29T02:30:33.867Z,12.50
2018-04-29T02:33:00.145Z,12.40
2018-04-29T02:35:27.239Z,12.30
2018-04-29T02:37:53.561Z,12.30
2018-04-29T02:40:20.142Z,12.30
2018-04-29T02:42:46.408Z,12.30
2018-04-29T02:45:12.742Z,12.30
2018-04-29T02:47:39.055Z,12.30
2018-04-29T02:50:06.135Z,12.30
2018-04-29T02:52:32.449Z,12.30
2018-04-29T02:54:58.775Z,12.20
2018-04-29T02:57:25.830Z,12.20
2018-04-29T02:59:52.166Z,12.10
2018-04-29T03:02:18.506Z,12.20
2018-04-29T03:04:44.858Z,12.10
2018-04-29T03:07:11.145Z,12.10
2018-04-29T03:09:38.159Z,12.10
2018-04-29T03:12:04.435Z,12.10
2018-04-29T03:14:30.756Z,12.00
2018-04-29T03:16:57.806Z,12.00
2018-04-29T03:19:24.846Z,12.00
2018-04-29T03:21:51.908Z,12.00
2018-04-29T03:24:18.224Z,12.00
2018-04-29T03:26:45.275Z,11.90
2018-04-29T03:29:12.305Z,12.00
2018-04-29T03:31:38.631Z,11.90
2018-04-29T03:34:04.920Z,12.00
2018-04-29T03:36:31.241Z,11.90
2018-04-29T03:38:57.548Z,11.90
2018-04-29T03:41:24.602Z,11.90
2018-04-29T03:43:50.857Z,11.80
2018-04-29T03:46:17.181Z,11.80
2018-04-29T03:48:43.468Z,11.80
2018-04-29T03:51:09.758Z,11.80
2018-04-29T03:53:36.077Z,11.90
2018-04-29T03:56:02.372Z,11.90
2018-04-29T03:58:48.166Z,11.90
2018-04-29T04:01:33.898Z,11.90
2018-04-29T04:04:02.663Z,11.80
2018-04-29T04:06:28.943Z,11.80
2018-04-29T04:08:55.215Z,11.90
2018-04-29T04:11:21.498Z,11.90
2018-04-29T04:13:47.772Z,11.90
2018-04-29T04:16:14.106Z,11.90
2018-04-29T04:18:40.390Z,11.90
2018-04-29T04:21:06.636Z,11.80
2018-04-29T04:23:33.661Z,11.90
2018-04-29T04:25:59.948Z,12.00
2018-04-29T04:28:26.251Z,12.10
2018-04-29T04:30:53.305Z,12.20
2018-04-29T04:33:20.347Z,12.30
2018-04-29T04:35:47.400Z,12.40
2018-04-29T04:38:13.730Z,12.40
2018-04-29T04:40:40.817Z,12.50
2018-04-29T04:43:07.136Z,12.50
2018-04-29T04:45:33.515Z,12.50
2018-04-29T04:47:59.835Z,12.40
2018-04-29T04:50:26.188Z,12.40
2018-04-29T04:52:52.488Z,12.40
2018-04-29T04:55:19.520Z,12.30
2018-04-29T04:57:45.791Z,12.30
2018-04-29T05:00:12.055Z,12.50
2018-04-29T05:02:38.405Z,12.50
2018-04-29T05:05:04.740Z,12.70
2018-04-29T05:07:31.074Z,12.80
2018-04-29T05:09:57.400Z,13.10
2018-04-29T05:12:23.670Z,13.40
2018-04-29T05:14:49.937Z,13.60
2018-04-29T05:17:16.263Z,13.80
2018-04-29T05:19:43.286Z,13.80
2018-04-29T05:22:09.696Z,13.80
2018-04-29T05:24:36.672Z,14.20
2018-04-29T05:27:03.003Z,14.10
2018-04-29T05:29:29.390Z,14.30
2018-04-29T05:31:55.684Z,14.30
2018-04-29T05:34:22.736Z,14.30
2018-04-29T05:36:49.046Z,14.20
2018-04-29T05:39:15.375Z,14.70
2018-04-29T05:41:41.677Z,15.10
2018-04-29T05:44:08.029Z,15.40
2018-04-29T05:46:34.384Z,15.50
2018-04-29T05:49:01.461Z,15.60
2018-04-29T05:51:27.766Z,15.60
2018-04-29T05:53:54.860Z,16.10
2018-04-29T05:56:21.158Z,16.10
2018-04-29T05:58:47.426Z,16.30
2018-04-29T06:01:13.755Z,16.70
2018-04-29T06:03:40.055Z,16.80
2018-04-29T06:06:07.555Z,17.10
2018-04-29T06:08:33.805Z,17.10
2018-04-29T06:11:00.847Z,17.10
2018-04-29T06:13:27.133Z,17.10
2018-04-29T06:16:00.471Z,17.20
2018-04-29T06:18:27.008Z,17.20
2018-04-29T06:20:53.271Z,17.20
2018-04-29T06:23:19.568Z,17.00
2018-04-29T06:25:45.993Z,17.00
2018-04-29T06:28:12.290Z,16.90
2018-04-29T06:30:38.585Z,17.10
2018-04-29T06:33:05.656Z,17.70
2018-04-29T06:35:31.967Z,17.60
2018-04-29T06:37:58.263Z,17.70
2018-04-29T06:40:24.570Z,17.50
2018-04-29T06:42:50.955Z,17.90
2018-04-29T06:45:17.274Z,17.90
2018-04-29T06:47:43.618Z,17.90
2018-04-29T06:50:10.680Z,18.10
2018-04-29T06:52:37.016Z,18.00
2018-04-29T06:55:03.289Z,17.90
2018-04-29T06:57:29.600Z,17.90
2018-04-29T06:59:55.895Z,18.40
2018-04-29T07:02:23.022Z,18.90
2018-04-29T07:04:49.432Z,18.80
2018-04-29T07:07:15.722Z,18.90
2018-04-29T07:09:42.016Z,19.10
2018-04-29T07:12:08.336Z,18.80
2018-04-29T07:14:34.657Z,19.10
2018-04-29T07:17:01.018Z,19.30
2018-04-29T07:19:28.125Z,19.30
2018-04-29T07:21:54.463Z,19.30
2018-04-29T07:24:20.773Z,18.90
2018-04-29T07:26:47.211Z,19.10
2018-04-29T07:29:13.569Z,19.60
2018-04-29T07:31:39.873Z,19.90
2018-04-29T07:34:06.187Z,20.00
2018-04-29T07:36:33.210Z,19.80
2018-04-29T07:39:00.245Z,19.70
2018-04-29T07:41:26.529Z,19.70
2018-04-29T07:43:52.855Z,19.80
2018-04-29T07:46:19.137Z,20.40
2018-04-29T07:48:45.426Z,20.60
2018-04-29T07:51:11.764Z,20.60
2018-04-29T07:53:38.064Z,20.60
2018-04-29T07:56:04.343Z,20.60
2018-04-29T07:58:30.637Z,20.00
2018-04-29T08:00:56.937Z,19.60
2018-04-29T08:03:24.051Z,20.50
2018-04-29T08:05:51.107Z,20.90
2018-04-29T08:08:17.436Z,20.90
2018-04-29T08:10:43.870Z,20.70
2018-04-29T08:13:10.204Z,21.00
2018-04-29T08:15:36.708Z,20.90
2018-04-29T08:18:02.927Z,20.70
2018-04-29T08:20:29.251Z,21.00
2018-04-29T08:22:56.447Z,20.90
2018-04-29T08:25:22.751Z,20.90
2018-04-29T08:27:49.062Z,20.30
2018-04-29T08:30:15.398Z,20.40
2018-04-29T08:32:41.729Z,20.90
2018-04-29T08:35:07.986Z,20.90
2018-04-29T08:37:34.335Z,21.20
2018-04-29T08:40:00.694Z,21.20
2018-04-29T08:42:27.703Z,20.90
2018-04-29T08:44:54.067Z,20.90
2018-04-29T08:47:21.086Z,21.00
2018-04-29T08:49:47.378Z,20.90
2018-04-29T08:52:13.662Z,21.50
2018-04-29T08:54:39.936Z,21.20
2018-04-29T08:57:06.247Z,21.60
2018-04-29T08:59:33.297Z,21.40
2018-04-29T09:02:00.323Z,21.20
2018-04-29T09:04:27.400Z,21.50
2018-04-29T09:06:53.665Z,21.50
2018-04-29T09:09:20.027Z,21.20
2018-04-29T09:11:46.410Z,21.00
2018-04-29T09:14:12.802Z,21.40
2018-04-29T09:16:39.089Z,21.70
2018-04-29T09:19:05.399Z,21.40
2018-04-29T09:21:31.675Z,21.20
2018-04-29T09:23:58.015Z,21.60
2018-04-29T09:26:24.318Z,22.20
2018-04-29T09:28:50.610Z,22.30
2018-04-29T09:31:16.940Z,22.30
2018-04-29T09:33:43.322Z,22.50
2018-04-29T09:36:09.911Z,22.40
2018-04-29T09:38:37.932Z,22.50
2018-04-29T09:41:12.143Z,22.50
2018-04-29T09:43:38.651Z,22.60
2018-04-29T09:46:05.014Z,22.40
2018-04-29T09:48:31.351Z,22.30
2018-04-29T09:50:58.447Z,23.30
2018-04-29T09:53:25.513Z,23.00
2018-04-29T09:55:51.820Z,23.00
2018-04-29T09:58:18.862Z,22.60
2018-04-29T10:00:48.990Z,22.90
2018-04-29T10:03:15.258Z,22.90
2018-04-29T10:05:41.511Z,23.60
2018-04-29T10:08:07.841Z,23.40
2018-04-29T10:10:34.155Z,23.80
2018-04-29T10:13:00.470Z,23.90
2018-04-29T10:15:26.780Z,24.00
2018-04-29T10:17:53.090Z,23.50
2018-04-29T10:20:19.365Z,23.20
2018-04-29T10:22:45.677Z,23.50
2018-04-29T10:25:11.983Z,23.40
2018-04-29T10:27:38.955Z,24.00
2018-04-29T10:30:05.290Z,24.10
2018-04-29T10:32:31.522Z,24.20
2018-04-29T10:34:57.824Z,24.40
2018-04-29T10:37:24.830Z,24.20
2018-04-29T10:39:51.095Z,24.20
2018-04-29T10:42:18.126Z,24.00
2018-04-29T10:44:44.511Z,23.90
2018-04-29T10:47:10.808Z,23.80
2018-04-29T10:49:37.813Z,23.90
2018-04-29T10:52:04.132Z,23.90
2018-04-29T10:54:30.459Z,23.90
2018-04-29T10:56:56.773Z,23.80
2018-04-29T10:59:23.103Z,24.60
2018-04-29T11:01:49.378Z,24.80
2018-04-29T11:04:15.717Z,25.00
2018-04-29T11:06:42.783Z,25.00
2018-04-29T11:09:09.839Z,25.00
2018-04-29T11:11:36.851Z,24.80
2018-04-29T11:14:03.835Z,24.70
2018-04-29T11:16:30.146Z,24.70
2018-04-29T11:18:56.426Z,24.90
2018-04-29T11:21:22.709Z,24.80
2018-04-29T11:23:49.160Z,24.30
2018-04-29T11:26:15.519Z,24.60
2018-04-29T11:28:41.925Z,25.20
2018-04-29T11:31:08.175Z,25.50
2018-04-29T11:33:34.486Z,25.80
2018-04-29T11:36:01.537Z,26.10
2018-04-29T11:38:28.626Z,26.90
2018-04-29T11:40:54.955Z,26.90
2018-04-29T11:43:21.247Z,27.50
2018-04-29T11:45:48.330Z,28.70
2018-04-29T11:48:14.668Z,28.60
2018-04-29T11:50:40.991Z,29.10
2018-04-29T11:53:07.260Z,29.10
2018-04-29T11:55:33.598Z,30.40
2018-04-29T11:58:00.689Z,33.20
2018-04-29T12:00:26.992Z,33.10
2018-04-29T12:02:53.985Z,36.40
2018-04-29T12:05:20.285Z,36.30
2018-04-29T12:07:46.562Z,36.30
2018-04-29T12:10:12.857Z,38.30
2018-04-29T12:12:39.131Z,38.10
2018-04-29T12:15:05.434Z,36.50
2018-04-29T12:17:31.761Z,36.50
2018-04-29T12:19:58.023Z,37.10
2018-04-29T12:22:24.266Z,37.60
2018-04-29T12:24:50.553Z,38.90
2018-04-29T12:27:16.844Z,38.40
2018-04-29T12:29:43.910Z,41.30
2018-04-29T12:32:10.185Z,41.20
2018-04-29T12:34:36.541Z,42.90
2018-04-29T12:37:03.639Z,44.10
2018-04-29T12:39:29.969Z,44.00
2018-04-29T12:41:56.257Z,44.00
2018-04-29T12:44:23.282Z,39.80
2018-04-29T12:46:49.588Z,39.70
2018-04-29T12:49:15.910Z,40.50
2018-04-29T12:51:42.224Z,41.40
2018-04-29T12:54:08.557Z,41.50
2018-04-29T12:56:34.895Z,42.10
2018-04-29T12:59:01.180Z,42.10
2018-04-29T13:01:27.460Z,43.00
2018-04-29T13:03:53.762Z,43.40
2018-04-29T13:06:20.073Z,44.80
2018-04-29T13:08:46.404Z,45.30
2018-04-29T13:11:13.464Z,44.70
2018-04-29T13:13:40.521Z,45.30
2018-04-29T13:16:07.571Z,45.70
2018-04-29T13:18:33.909Z,45.70
2018-04-29T13:21:00.190Z,44.80
2018-04-29T13:23:26.526Z,45.10
2018-04-29T13:25:52.841Z,43.70
2018-04-29T13:28:19.147Z,43.70
2018-04-29T13:30:45.440Z,44.20
2018-04-29T13:33:12.477Z,45.40
2018-04-29T13:35:38.915Z,45.40
2018-04-29T13:38:05.177Z,44.10
2018-04-29T13:40:31.466Z,44.20
2018-04-29T13:42:57.751Z,45.90
2018-04-29T13:45:24.035Z,43.80
2018-04-29T13:47:50.270Z,45.80
2018-04-29T13:50:17.328Z,44.70
2018-04-29T13:52:44.374Z,45.20
2018-04-29T13:55:11.402Z,46.20
2018-04-29T13:57:37.683Z,46.00
2018-04-29T14:00:04.012Z,45.10
2018-04-29T14:02:30.289Z,45.60
2018-04-29T14:04:56.553Z,43.50
2018-04-29T14:07:22.846Z,43.90
2018-04-29T14:09:49.136Z,43.40
2018-04-29T14:12:15.481Z,44.80
2018-04-29T14:14:41.744Z,45.40
2018-04-29T14:17:07.990Z,44.40
2018-04-29T14:19:35.014Z,43.10
2018-04-29T14:22:01.336Z,43.10
2018-04-29T14:24:27.774Z,44.80
2018-04-29T14:26:54.090Z,45.40
2018-04-29T14:29:20.408Z,45.50
2018-04-29T14:31:46.687Z,45.10
2018-04-29T14:34:13.691Z,45.00
2018-04-29T14:36:40.020Z,45.00
2018-04-29T14:39:06.250Z,45.70
2018-04-29T14:41:32.564Z,46.00
2018-04-29T14:43:58.917Z,47.10
2018-04-29T14:46:25.217Z,46.20
2018-04-29T14:48:51.513Z,45.60
2018-04-29T14:51:18.617Z,44.10
2018-04-29T14:53:44.949Z,44.10
2018-04-29T14:56:11.275Z,44.50
2018-04-29T14:58:37.606Z,45.00
2018-04-29T15:01:03.922Z,44.90
2018-04-29T15:03:30.277Z,45.10
2018-04-29T15:05:56.833Z,45.30
2018-04-29T15:08:23.148Z,44.70
2018-04-29T15:10:49.431Z,43.30
2018-04-29T15:13:15.741Z,42.90
2018-04-29T15:15:41.992Z,43.70
2018-04-29T15:18:27.693Z,44.70
2018-04-29T15:20:53.938Z,44.60
2018-04-29T15:23:20.259Z,45.10
2018-04-29T15:25:46.599Z,44.90
2018-04-29T15:28:13.582Z,45.70
2018-04-29T15:30:39.892Z,45.70
2018-04-29T15:33:06.166Z,45.10
2018-04-29T15:35:33.186Z,45.30
2018-04-29T15:37:59.463Z,45.20
2018-04-29T15:40:25.717Z,44.60
2018-04-29T15:42:51.967Z,44.60
2018-04-29T15:45:19.029Z,44.20
2018-04-29T15:47:45.317Z,44.10
2018-04-29T15:50:11.612Z,43.20
2018-04-29T15:52:38.630Z,43.40
2018-04-29T15:55:04.943Z,43.40
2018-04-29T15:57:31.277Z,44.00
2018-04-29T15:59:57.548Z,43.80
2018-04-29T16:02:24.566Z,42.90
2018-04-29T16:04:50.898Z,42.90
2018-04-29T16:07:17.196Z,42.00
2018-04-29T16:09:43.479Z,43.10
2018-04-29T16:12:10.537Z,42.20
2018-04-29T16:14:37.622Z,41.70
2018-04-29T16:17:03.943Z,41.70
2018-04-29T16:19:30.276Z,42.80
2018-04-29T16:21:57.457Z,41.40
2018-04-29T16:24:23.738Z,40.30
2018-04-29T16:26:51.767Z,37.20
2018-04-29T16:29:18.069Z,37.10
2018-04-29T16:31:44.387Z,35.60
2018-04-29T16:34:10.717Z,34.70
2018-04-29T16:36:36.981Z,34.10
2018-04-29T16:39:03.247Z,33.70
2018-04-29T16:41:29.565Z,33.40
2018-04-29T16:43:55.862Z,33.30
2018-04-29T16:46:22.132Z,33.60
2018-04-29T16:48:48.433Z,34.30
2018-04-29T16:51:15.467Z,35.10
2018-04-29T16:53:41.751Z,35.60
2018-04-29T16:56:08.889Z,35.80
2018-04-29T16:58:35.186Z,35.80
2018-04-29T17:01:01.477Z,35.90
2018-04-29T17:03:28.534Z,35.80
2018-04-29T17:05:54.972Z,35.80
2018-04-29T17:08:21.310Z,35.70
2018-04-29T17:10:47.691Z,35.20
2018-04-29T17:13:14.018Z,35.20
2018-04-29T17:15:40.341Z,34.40
2018-04-29T17:18:06.657Z,33.50
2018-04-29T17:20:33.036Z,32.60
2018-04-29T17:23:00.118Z,32.30
2018-04-29T17:25:26.472Z,32.20
2018-04-29T17:27:52.815Z,32.40
2018-04-29T17:30:19.099Z,32.30
2018-04-29T17:32:46.139Z,33.10
2018-04-29T17:35:13.223Z,32.10
2018-04-29T17:37:39.555Z,32.10
2018-04-29T17:40:05.952Z,31.30
2018-04-29T17:42:33.032Z,30.00
2018-04-29T17:44:59.381Z,29.90
2018-04-29T17:47:25.750Z,28.90
2018-04-29T17:49:52.869Z,27.60
2018-04-29T17:52:19.297Z,27.60
2018-04-29T17:54:45.735Z,27.40
2018-04-29T17:57:12.005Z,27.20
2018-04-29T17:59:39.095Z,26.30
2018-04-29T18:02:05.439Z,26.20
2018-04-29T18:04:31.758Z,26.10
2018-04-29T18:06:58.076Z,25.80
2018-04-29T18:09:24.460Z,25.60
2018-04-29T18:11:50.735Z,25.30
2018-04-29T18:14:17.039Z,25.00
2018-04-29T18:16:44.053Z,24.50
2018-04-29T18:19:10.367Z,24.50
2018-04-29T18:21:36.649Z,24.40
2018-04-29T18:24:03.742Z,24.00
2018-04-29T18:26:30.021Z,24.00
2018-04-29T18:28:57.892Z,23.70
2018-04-29T18:31:25.503Z,23.50
2018-04-29T18:33:52.581Z,23.50
2018-04-29T18:36:18.898Z,23.30
2018-04-29T18:38:45.266Z,23.10
2018-04-29T18:41:12.925Z,23.00
2018-04-29T18:43:39.954Z,22.90
2018-04-29T18:46:06.203Z,22.80
2018-04-29T18:48:32.558Z,22.80
2018-04-29T18:50:58.969Z,22.70
2018-04-29T18:53:25.101Z,22.70
2018-04-29T18:55:52.123Z,22.40
2018-04-29T18:58:18.407Z,22.40
2018-04-29T19:00:44.675Z,22.30
2018-04-29T19:03:11.010Z,22.30
2018-04-29T19:05:46.472Z,22.10
2018-04-29T19:08:13.598Z,22.00
2018-04-29T19:10:39.939Z,22.00
2018-04-29T19:13:06.207Z,21.90
2018-04-29T19:15:32.487Z,21.80
2018-04-29T19:17:59.630Z,21.60
2018-04-29T19:20:25.917Z,21.60
2018-04-29T19:22:52.235Z,21.50
2018-04-29T19:25:19.277Z,21.40
2018-04-29T19:27:46.279Z,21.40
2018-04-29T19:30:12.751Z,21.40
2018-04-29T19:32:39.049Z,21.40
2018-04-29T19:35:05.365Z,21.40
2018-04-29T19:37:31.665Z,21.30
2018-04-29T19:39:59.000Z,21.30
2018-04-29T19:42:25.289Z,21.20
2018-04-29T19:44:51.600Z,21.10
2018-04-29T19:47:17.861Z,21.00
2018-04-29T19:49:44.199Z,21.00
2018-04-29T19:52:11.295Z,20.90
2018-04-29T19:54:37.574Z,20.90
2018-04-29T19:57:03.830Z,20.90
2018-04-29T19:59:30.124Z,20.80
2018-04-29T20:01:56.413Z,20.70
2018-04-29T20:04:22.714Z,20.60
2018-04-29T20:06:49.764Z,20.50
2018-04-29T20:09:16.108Z,20.50
2018-04-29T20:11:43.135Z,20.30
2018-04-29T20:14:09.460Z,20.30
2018-04-29T20:16:36.488Z,20.20
2018-04-29T20:19:02.775Z,20.20
2018-04-29T20:21:29.790Z,20.10
2018-04-29T20:23:56.230Z,20.10
2018-04-29T20:26:22.565Z,20.00
2018-04-29T20:28:48.875Z,20.00
2018-04-29T20:31:15.154Z,19.90
2018-04-29T20:33:41.427Z,19.80
2018-04-29T20:36:07.707Z,19.80
2018-04-29T20:38:34.749Z,19.60
2018-04-29T20:41:01.787Z,19.50
2018-04-29T20:43:28.064Z,19.50
2018-04-29T20:45:54.350Z,19.40
2018-04-29T20:48:20.694Z,19.40
2018-04-29T20:50:48.651Z,19.20
2018-04-29T20:53:15.160Z,19.20
2018-04-29T20:55:56.411Z,19.10
2018-04-29T20:58:22.711Z,19.00
2018-04-29T21:00:49.757Z,19.00
2018-04-29T21:03:16.766Z,18.90
2018-04-29T21:05:43.818Z,18.90
2018-04-29T21:08:10.084Z,18.90
2018-04-29T21:10:37.164Z,18.80
2018-04-29T21:13:03.497Z,18.70
2018-04-29T21:15:29.763Z,18.80
2018-04-29T21:17:56.043Z,18.70
2018-04-29T21:20:22.336Z,18.70
2018-04-29T21:22:48.648Z,18.70
2018-04-29T21:25:15.892Z,18.60
2018-04-29T21:27:42.222Z,18.60
2018-04-29T21:30:08.577Z,18.70
2018-04-29T21:32:34.827Z,18.60
2018-04-29T21:35:01.859Z,18.50
2018-04-29T21:37:28.149Z,18.50
2018-04-29T21:39:54.435Z,18.50
2018-04-29T21:42:21.469Z,18.40
2018-04-29T21:44:47.756Z,18.30
2018-04-29T21:47:14.028Z,18.30
2018-04-29T21:49:40.299Z,18.20
2018-04-29T21:52:06.607Z,18.10
2018-04-29T21:54:33.615Z,18.00
2018-04-29T21:56:59.847Z,18.00
2018-04-29T21:59:26.138Z,18.00
2018-04-29T22:01:52.392Z,17.90
2018-04-29T22:04:18.669Z,17.90
2018-04-29T22:06:45.686Z,17.80
2018-04-29T22:09:11.923Z,17.80
2018-04-29T22:11:38.223Z,17.80
2018-04-29T22:14:04.508Z,17.70
2018-04-29T22:16:31.573Z,17.60
2018-04-29T22:18:57.861Z,17.60
2018-04-29T22:21:24.170Z,17.50
2018-04-29T22:23:50.466Z,17.50
2018-04-29T22:26:16.732Z,17.40
2018-04-29T22:28:43.739Z,17.30
2018-04-29T22:31:10.002Z,17.30
2018-04-29T22:33:36.268Z,17.30
2018-04-29T22:36:02.827Z,17.20
2018-04-29T22:38:29.845Z,17.10
2018-04-29T22:40:56.142Z,17.10
2018-04-29T22:43:22.492Z,17.10
2018-04-29T22:45:48.801Z,17.00
2018-04-29T22:48:15.101Z,17.00
2018-04-29T22:50:41.431Z,16.90
2018-04-29T22:53:07.717Z,16.90
2018-04-29T22:55:33.978Z,16.90
2018-04-29T22:58:01.046Z,16.90
2018-04-29T23:00:27.317Z,16.90
2018-04-29T23:02:53.573Z,16.90
2018-04-29T23:05:19.901Z,16.90
2018-04-29T23:07:46.201Z,16.80
2018-04-29T23:10:12.463Z,16.80
2018-04-29T23:12:38.732Z,16.80
2018-04-29T23:15:05.006Z,16.80
2018-04-29T23:17:31.266Z,16.80
2018-04-29T23:19:58.313Z,16.80
2018-04-29T23:22:24.585Z,16.70
2018-04-29T23:24:50.836Z,16.70
2018-04-29T23:27:17.167Z,16.70
2018-04-29T23:29:43.413Z,16.70
2018-04-29T23:32:09.718Z,16.60
2018-04-29T23:34:35.995Z,16.60
2018-04-29T23:37:03.025Z,16.60
2018-04-29T23:39:30.022Z,16.60
2018-04-29T23:41:56.307Z,16.60
2018-04-29T23:44:23.313Z,16.60
2018-04-29T23:46:49.627Z,16.50
2018-04-29T23:49:15.928Z,16.60
2018-04-29T23:51:42.922Z,16.50
2018-04-29T23:54:09.202Z,16.40
2018-04-29T23:56:36.231Z,16.40
2018-04-29T23:59:02.475Z,16.30
